createdAt,value
2018-10-05T00:00:40.508Z,0.00
2018-10-05T00:01:40.652Z,0.00
2018-10-05T00:02:40.799Z,0.00
2018-10-05T00:03:40.948Z,0.00
2018-10-05T00:04:41.096Z,0.00
2018-10-05T00:05:41.243Z,0.00
2018-10-05T00:06:41.389Z,0.00
2018-10-05T00:07:41.534Z,0.00
2018-10-05T00:08:41.683Z,0.00
2018-10-05T00:09:41.833Z,0.00
2018-10-05T00:10:41.980Z,0.00
2018-10-05T00:11:42.130Z,0.00
2018-10-05T00:12:42.284Z,0.00
2018-10-05T00:13:42.427Z,0.00
2018-10-05T00:14:42.577Z,0.00
2018-10-05T00:15:42.725Z,0.00
2018-10-05T00:16:42.875Z,0.00
2018-10-05T00:17:43.022Z,0.00
2018-10-05T00:18:43.168Z,0.00
2018-10-05T00:19:43.351Z,0.00
2018-10-05T00:20:43.502Z,0.00
2018-10-05T00:21:43.647Z,0.00
2018-10-05T00:22:43.796Z,0.00
2018-10-05T00:23:43.942Z,0.00
2018-10-05T00:24:44.096Z,0.00
2018-10-05T00:25:44.240Z,0.00
2018-10-05T00:26:44.387Z,0.00
2018-10-05T00:27:44.534Z,0.00
2018-10-05T00:28:44.685Z,0.00
2018-10-05T00:29:44.830Z,0.00
2018-10-05T00:30:44.980Z,0.00
2018-10-05T00:31:45.126Z,0.00
2018-10-05T00:32:45.276Z,0.00
2018-10-05T00:33:45.424Z,0.00
2018-10-05T00:34:45.573Z,0.00
2018-10-05T00:35:45.720Z,0.00
2018-10-05T00:36:45.870Z,0.00
2018-10-05T00:37:46.061Z,0.00
2018-10-05T00:38:46.168Z,0.00
2018-10-05T00:39:46.315Z,0.00
2018-10-05T00:40:46.507Z,0.00
2018-10-05T00:41:46.614Z,0.00
2018-10-05T00:42:46.762Z,0.00
2018-10-05T00:43:46.911Z,0.00
2018-10-05T00:44:47.058Z,0.00
2018-10-05T00:45:47.212Z,0.00
2018-10-05T00:46:47.357Z,0.00
2018-10-05T00:47:47.505Z,0.00
2018-10-05T00:48:47.654Z,0.00
2018-10-05T00:49:47.802Z,0.00
2018-10-05T00:50:47.952Z,0.00
2018-10-05T00:51:48.098Z,0.00
2018-10-05T00:52:48.259Z,0.00
2018-10-05T00:53:48.395Z,0.00
2018-10-05T00:54:48.546Z,0.00
2018-10-05T00:55:48.698Z,0.00
2018-10-05T00:56:48.841Z,0.00
2018-10-05T00:57:48.989Z,0.00
2018-10-05T00:58:49.137Z,0.00
2018-10-05T00:59:49.292Z,0.00
2018-10-05T01:00:49.436Z,0.00
2018-10-05T01:01:49.603Z,0.00
2018-10-05T01:02:49.731Z,0.00
2018-10-05T01:03:49.878Z,0.00
2018-10-05T01:04:50.025Z,0.00
2018-10-05T01:05:50.173Z,0.00
2018-10-05T01:06:50.322Z,0.00
2018-10-05T01:07:50.470Z,0.00
2018-10-05T01:08:50.616Z,0.00
2018-10-05T01:09:50.757Z,0.00
2018-10-05T01:10:50.902Z,0.00
2018-10-05T01:11:51.053Z,0.00
2018-10-05T01:12:51.199Z,0.00
2018-10-05T01:13:51.345Z,0.00
2018-10-05T01:14:51.493Z,0.00
2018-10-05T01:15:51.640Z,0.00
2018-10-05T01:16:51.786Z,0.00
2018-10-05T01:17:51.941Z,0.00
2018-10-05T01:18:52.085Z,0.00
2018-10-05T01:19:52.232Z,0.00
2018-10-05T01:20:52.388Z,0.00
2018-10-05T01:21:52.533Z,0.00
2018-10-05T01:22:52.682Z,0.00
2018-10-05T01:23:52.826Z,0.00
2018-10-05T01:24:53.008Z,0.00
2018-10-05T01:25:53.137Z,0.00
2018-10-05T01:26:53.282Z,0.00
2018-10-05T01:27:53.430Z,0.00
2018-10-05T01:28:53.576Z,0.00
2018-10-05T01:29:53.724Z,0.00
2018-10-05T01:30:53.872Z,0.00
2018-10-05T01:31:54.021Z,0.00
2018-10-05T01:32:54.175Z,0.00
2018-10-05T01:33:54.322Z,0.00
2018-10-05T01:34:54.471Z,0.00
2018-10-05T01:35:54.617Z,0.00
2018-10-05T01:36:54.767Z,0.00
2018-10-05T01:37:54.915Z,0.00
2018-10-05T01:38:55.170Z,0.00
2018-10-05T01:39:55.212Z,0.00
2018-10-05T01:40:55.361Z,0.00
2018-10-05T01:41:55.507Z,0.00
2018-10-05T01:42:55.657Z,0.00
2018-10-05T01:43:55.805Z,0.00
2018-10-05T01:44:55.952Z,0.00
2018-10-05T01:45:56.105Z,0.00
2018-10-05T01:46:56.249Z,0.00
2018-10-05T01:47:56.399Z,0.00
2018-10-05T01:48:56.547Z,0.00
2018-10-05T01:49:56.696Z,0.00
2018-10-05T01:50:56.846Z,0.00
2018-10-05T01:51:56.995Z,0.00
2018-10-05T01:52:57.144Z,0.00
2018-10-05T01:53:57.290Z,0.00
2018-10-05T01:54:57.487Z,0.00
2018-10-05T01:55:57.584Z,0.00
2018-10-05T01:56:57.731Z,0.00
2018-10-05T01:57:57.879Z,0.00
2018-10-05T01:58:58.028Z,0.00
2018-10-05T01:59:58.180Z,0.00
2018-10-05T02:00:58.321Z,0.00
2018-10-05T02:01:58.470Z,0.00
2018-10-05T02:02:58.627Z,0.00
2018-10-05T02:03:58.766Z,0.00
2018-10-05T02:04:58.915Z,0.00
2018-10-05T02:05:59.064Z,0.00
2018-10-05T02:06:59.214Z,0.00
2018-10-05T02:07:59.356Z,0.00
2018-10-05T02:08:59.505Z,0.00
2018-10-05T02:09:59.652Z,0.00
2018-10-05T02:10:59.802Z,0.00
2018-10-05T02:11:59.951Z,0.00
2018-10-05T02:13:00.099Z,0.00
2018-10-05T02:14:00.248Z,0.00
2018-10-05T02:15:00.395Z,0.00
2018-10-05T02:16:00.537Z,0.00
2018-10-05T02:17:00.677Z,0.00
2018-10-05T02:18:00.823Z,0.00
2018-10-05T02:19:00.972Z,0.00
2018-10-05T02:20:01.121Z,0.00
2018-10-05T02:21:01.266Z,0.00
2018-10-05T02:22:01.415Z,0.00
2018-10-05T02:23:01.562Z,0.00
2018-10-05T02:24:01.713Z,0.00
2018-10-05T02:25:01.859Z,0.00
2018-10-05T02:26:02.007Z,0.00
2018-10-05T02:27:02.152Z,0.00
2018-10-05T02:28:02.302Z,0.00
2018-10-05T02:29:02.453Z,0.00
2018-10-05T02:30:02.603Z,0.00
2018-10-05T02:31:02.747Z,0.00
2018-10-05T02:32:02.893Z,0.00
2018-10-05T02:33:03.086Z,0.00
2018-10-05T02:34:03.187Z,0.00
2018-10-05T02:35:03.337Z,0.00
2018-10-05T02:36:03.489Z,0.00
2018-10-05T02:37:03.636Z,0.00
2018-10-05T02:38:03.780Z,0.00
2018-10-05T02:39:03.926Z,0.00
2018-10-05T02:40:04.085Z,0.00
2018-10-05T02:41:04.224Z,0.00
2018-10-05T02:42:04.372Z,0.00
2018-10-05T02:43:04.523Z,0.00
2018-10-05T02:44:04.668Z,0.00
2018-10-05T02:45:04.825Z,0.00
2018-10-05T02:46:04.963Z,0.00
2018-10-05T02:47:05.112Z,0.00
2018-10-05T02:48:05.262Z,0.00
2018-10-05T02:49:05.410Z,0.00
2018-10-05T02:50:05.557Z,0.00
2018-10-05T02:51:05.707Z,0.00
2018-10-05T02:52:05.862Z,0.00
2018-10-05T02:53:06.005Z,0.00
2018-10-05T02:54:06.153Z,0.00
2018-10-05T02:55:06.302Z,0.00
2018-10-05T02:56:06.452Z,0.00
2018-10-05T02:57:06.596Z,0.00
2018-10-05T02:58:06.745Z,0.00
2018-10-05T02:59:06.893Z,0.00
2018-10-05T03:00:07.041Z,0.00
2018-10-05T03:01:07.189Z,0.00
2018-10-05T03:02:07.340Z,0.00
2018-10-05T03:03:07.488Z,0.00
2018-10-05T03:04:07.635Z,0.00
2018-10-05T03:05:07.787Z,0.00
2018-10-05T03:06:07.937Z,0.00
2018-10-05T03:07:08.085Z,0.00
2018-10-05T03:08:08.232Z,0.00
2018-10-05T03:09:08.382Z,0.00
2018-10-05T03:10:08.527Z,0.00
2018-10-05T03:11:08.676Z,0.00
2018-10-05T03:12:08.823Z,0.00
2018-10-05T03:13:08.973Z,0.00
2018-10-05T03:14:09.119Z,0.00
2018-10-05T03:15:09.268Z,0.00
2018-10-05T03:16:09.416Z,0.00
2018-10-05T03:17:09.564Z,0.00
2018-10-05T03:18:09.714Z,0.00
2018-10-05T03:19:09.859Z,0.00
2018-10-05T03:20:10.006Z,0.00
2018-10-05T03:21:10.154Z,0.00
2018-10-05T03:22:10.303Z,0.00
2018-10-05T03:23:10.452Z,0.00
2018-10-05T03:24:10.597Z,0.00
2018-10-05T03:25:10.743Z,0.00
2018-10-05T03:26:10.891Z,0.00
2018-10-05T03:27:11.040Z,0.00
2018-10-05T03:28:11.187Z,0.00
2018-10-05T03:29:11.337Z,0.00
2018-10-05T03:30:11.486Z,0.00
2018-10-05T03:31:11.632Z,0.00
2018-10-05T03:32:11.780Z,0.00
2018-10-05T03:33:11.931Z,0.00
2018-10-05T03:34:12.083Z,0.00
2018-10-05T03:35:12.229Z,0.00
2018-10-05T03:36:12.376Z,0.00
2018-10-05T03:37:12.528Z,0.00
2018-10-05T03:38:12.671Z,0.00
2018-10-05T03:39:12.821Z,0.00
2018-10-05T03:40:12.971Z,0.00
2018-10-05T03:41:13.120Z,0.00
2018-10-05T03:42:13.267Z,0.00
2018-10-05T03:43:13.413Z,0.00
2018-10-05T03:44:13.563Z,0.00
2018-10-05T03:45:13.712Z,0.00
2018-10-05T03:46:13.861Z,0.00
2018-10-05T03:47:14.005Z,0.00
2018-10-05T03:48:14.151Z,0.00
2018-10-05T03:49:14.299Z,0.00
2018-10-05T03:50:14.454Z,0.00
2018-10-05T03:51:14.597Z,0.00
2018-10-05T03:52:14.746Z,0.00
2018-10-05T03:53:14.898Z,0.00
2018-10-05T03:54:15.043Z,0.00
2018-10-05T03:55:15.189Z,0.00
2018-10-05T03:56:15.335Z,0.00
2018-10-05T03:57:15.483Z,0.00
2018-10-05T03:58:15.630Z,0.00
2018-10-05T03:59:15.779Z,0.00
2018-10-05T04:00:15.928Z,0.00
2018-10-05T04:01:16.075Z,0.00
2018-10-05T04:02:16.225Z,0.00
2018-10-05T04:03:16.372Z,0.00
2018-10-05T04:04:16.518Z,0.00
2018-10-05T04:05:16.667Z,0.00
2018-10-05T04:06:16.815Z,0.00
2018-10-05T04:07:16.963Z,0.00
2018-10-05T04:08:17.113Z,0.00
2018-10-05T04:09:17.261Z,0.00
2018-10-05T04:10:17.408Z,0.00
2018-10-05T04:11:17.556Z,0.00
2018-10-05T04:12:17.703Z,0.00
2018-10-05T04:13:17.852Z,0.00
2018-10-05T04:14:17.994Z,0.00
2018-10-05T04:15:18.143Z,0.00
2018-10-05T04:16:18.293Z,0.00
2018-10-05T04:17:18.440Z,0.00
2018-10-05T04:18:18.590Z,0.00
2018-10-05T04:19:18.736Z,0.00
2018-10-05T04:20:18.886Z,0.00
2018-10-05T04:21:19.035Z,0.00
2018-10-05T04:22:19.180Z,0.00
2018-10-05T04:23:19.342Z,0.00
2018-10-05T04:24:19.483Z,0.00
2018-10-05T04:25:19.631Z,0.00
2018-10-05T04:26:19.775Z,0.00
2018-10-05T04:27:19.976Z,0.00
2018-10-05T04:28:20.065Z,0.00
2018-10-05T04:29:20.216Z,0.00
2018-10-05T04:30:20.364Z,0.00
2018-10-05T04:31:20.518Z,0.00
2018-10-05T04:32:20.660Z,0.00
2018-10-05T04:33:20.845Z,0.00
2018-10-05T04:34:20.954Z,0.00
2018-10-05T04:35:21.108Z,0.00
2018-10-05T04:36:21.253Z,0.00
2018-10-05T04:37:21.391Z,0.00
2018-10-05T04:38:21.541Z,0.00
2018-10-05T04:39:21.690Z,0.00
2018-10-05T04:40:21.836Z,0.00
2018-10-05T04:41:22.013Z,0.00
2018-10-05T04:42:22.128Z,0.00
2018-10-05T04:43:22.279Z,0.00
2018-10-05T04:44:22.425Z,0.00
2018-10-05T04:45:22.570Z,0.00
2018-10-05T04:46:22.718Z,0.00
2018-10-05T04:47:22.866Z,0.00
2018-10-05T04:48:23.015Z,0.00
2018-10-05T04:49:23.232Z,0.00
2018-10-05T04:50:23.313Z,0.00
2018-10-05T04:51:23.456Z,0.00
2018-10-05T04:52:23.601Z,0.00
2018-10-05T04:53:23.752Z,0.00
2018-10-05T04:54:23.895Z,0.00
2018-10-05T04:55:24.045Z,0.00
2018-10-05T04:56:24.194Z,0.00
2018-10-05T04:57:24.339Z,0.00
2018-10-05T04:58:24.485Z,0.00
2018-10-05T04:59:24.635Z,0.00
2018-10-05T05:00:24.785Z,0.00
2018-10-05T05:01:24.933Z,0.00
2018-10-05T05:02:25.079Z,0.00
2018-10-05T05:03:25.261Z,0.00
2018-10-05T05:04:25.372Z,0.00
2018-10-05T05:05:25.519Z,0.00
2018-10-05T05:06:25.669Z,0.00
2018-10-05T05:07:25.813Z,0.00
2018-10-05T05:08:25.978Z,0.00
2018-10-05T05:09:26.104Z,0.00
2018-10-05T05:10:26.251Z,0.00
2018-10-05T05:11:26.398Z,0.00
2018-10-05T05:12:26.545Z,0.00
2018-10-05T05:13:26.696Z,0.00
2018-10-05T05:14:26.844Z,0.00
2018-10-05T05:15:26.993Z,0.00
2018-10-05T05:16:27.137Z,0.00
2018-10-05T05:17:27.286Z,0.00
2018-10-05T05:18:27.431Z,0.00
2018-10-05T05:19:27.636Z,0.00
2018-10-05T05:20:27.725Z,0.00
2018-10-05T05:21:27.874Z,0.00
2018-10-05T05:22:28.020Z,0.00
2018-10-05T05:23:28.168Z,0.00
2018-10-05T05:24:28.315Z,0.00
2018-10-05T05:25:28.463Z,5.63
2018-10-05T05:26:28.610Z,5.63
2018-10-05T05:27:28.757Z,5.63
2018-10-05T05:28:28.908Z,5.63
2018-10-05T05:29:29.052Z,5.63
2018-10-05T05:30:29.202Z,5.63
2018-10-05T05:31:29.350Z,5.63
2018-10-05T05:32:29.493Z,5.63
2018-10-05T05:33:29.671Z,5.63
2018-10-05T05:34:29.793Z,11.25
2018-10-05T05:35:29.940Z,11.25
2018-10-05T05:36:30.091Z,11.25
2018-10-05T05:37:30.239Z,11.25
2018-10-05T05:38:30.385Z,11.25
2018-10-05T05:39:30.533Z,11.25
2018-10-05T05:40:30.679Z,11.25
2018-10-05T05:41:30.826Z,16.88
2018-10-05T05:42:30.972Z,16.88
2018-10-05T05:43:31.118Z,16.88
2018-10-05T05:44:31.266Z,16.88
2018-10-05T05:45:31.415Z,22.50
2018-10-05T05:46:31.563Z,22.50
2018-10-05T05:47:31.714Z,22.50
2018-10-05T05:48:31.858Z,22.50
2018-10-05T05:49:32.003Z,28.13
2018-10-05T05:50:32.152Z,28.13
2018-10-05T05:51:32.306Z,28.13
2018-10-05T05:52:32.445Z,28.13
2018-10-05T05:53:32.594Z,28.13
2018-10-05T05:54:32.820Z,33.75
2018-10-05T05:55:32.897Z,33.75
2018-10-05T05:56:33.042Z,33.75
2018-10-05T05:57:33.188Z,33.75
2018-10-05T05:58:33.336Z,39.38
2018-10-05T05:59:33.486Z,39.38
2018-10-05T06:00:33.632Z,39.38
2018-10-05T06:01:33.780Z,45.00
2018-10-05T06:02:33.928Z,45.00
2018-10-05T06:03:34.077Z,45.00
2018-10-05T06:04:34.226Z,50.63
2018-10-05T06:05:34.373Z,50.63
2018-10-05T06:06:34.519Z,50.63
2018-10-05T06:07:34.668Z,56.25
2018-10-05T06:08:34.818Z,56.25
2018-10-05T06:09:34.964Z,56.25
2018-10-05T06:10:35.114Z,61.88
2018-10-05T06:11:35.268Z,61.88
2018-10-05T06:12:35.413Z,67.50
2018-10-05T06:13:35.558Z,67.50
2018-10-05T06:14:35.705Z,67.50
2018-10-05T06:15:35.860Z,73.13
2018-10-05T06:16:36.081Z,73.13
2018-10-05T06:17:36.160Z,78.75
2018-10-05T06:18:36.299Z,78.75
2018-10-05T06:19:36.450Z,78.75
2018-10-05T06:20:36.597Z,78.75
2018-10-05T06:21:36.780Z,78.75
2018-10-05T06:22:36.931Z,84.38
2018-10-05T06:23:37.039Z,84.38
2018-10-05T06:24:37.186Z,84.38
2018-10-05T06:25:37.332Z,84.38
2018-10-05T06:26:37.481Z,90.00
2018-10-05T06:27:37.627Z,90.00
2018-10-05T06:28:37.774Z,90.00
2018-10-05T06:29:37.926Z,95.63
2018-10-05T06:30:38.132Z,95.63
2018-10-05T06:31:38.221Z,101.25
2018-10-05T06:32:38.369Z,101.25
2018-10-05T06:33:38.510Z,101.25
2018-10-05T06:34:38.668Z,106.88
2018-10-05T06:35:38.816Z,106.88
2018-10-05T06:36:38.965Z,112.50
2018-10-05T06:37:39.111Z,112.50
2018-10-05T06:38:39.259Z,118.13
2018-10-05T06:39:39.405Z,118.13
2018-10-05T06:40:39.551Z,118.13
2018-10-05T06:41:39.700Z,123.75
2018-10-05T06:42:39.848Z,123.75
2018-10-05T06:43:39.997Z,129.38
2018-10-05T06:44:40.142Z,135.00
2018-10-05T06:45:40.294Z,135.00
2018-10-05T06:46:40.440Z,135.00
2018-10-05T06:47:40.590Z,135.00
2018-10-05T06:48:40.738Z,135.00
2018-10-05T06:49:40.887Z,140.63
2018-10-05T06:50:41.036Z,140.63
2018-10-05T06:51:41.185Z,140.63
2018-10-05T06:52:41.334Z,146.25
2018-10-05T06:53:41.483Z,146.25
2018-10-05T06:54:41.634Z,151.88
2018-10-05T06:55:41.775Z,151.88
2018-10-05T06:56:41.922Z,157.50
2018-10-05T06:57:42.069Z,157.50
2018-10-05T06:58:42.216Z,163.13
2018-10-05T06:59:42.366Z,163.13
2018-10-05T07:00:42.514Z,163.13
2018-10-05T07:01:42.668Z,168.75
2018-10-05T07:02:42.814Z,168.75
2018-10-05T07:03:42.961Z,174.38
2018-10-05T07:04:43.108Z,180.00
2018-10-05T07:05:43.255Z,174.38
2018-10-05T07:06:43.404Z,174.38
2018-10-05T07:07:43.595Z,180.00
2018-10-05T07:08:43.693Z,180.00
2018-10-05T07:09:43.839Z,180.00
2018-10-05T07:10:43.988Z,180.00
2018-10-05T07:11:44.137Z,180.00
2018-10-05T07:12:44.286Z,180.00
2018-10-05T07:13:44.434Z,180.00
2018-10-05T07:14:44.583Z,180.00
2018-10-05T07:15:44.754Z,180.00
2018-10-05T07:16:44.877Z,180.00
2018-10-05T07:17:45.027Z,180.00
2018-10-05T07:18:45.178Z,185.63
2018-10-05T07:19:45.324Z,185.63
2018-10-05T07:20:45.472Z,180.00
2018-10-05T07:21:45.623Z,185.63
2018-10-05T07:22:45.769Z,185.63
2018-10-05T07:23:45.920Z,196.88
2018-10-05T07:24:46.067Z,196.88
2018-10-05T07:25:46.216Z,202.50
2018-10-05T07:26:46.369Z,208.13
2018-10-05T07:27:46.520Z,208.13
2018-10-05T07:28:46.673Z,213.75
2018-10-05T07:29:46.814Z,213.75
2018-10-05T07:30:46.960Z,219.38
2018-10-05T07:31:47.109Z,225.00
2018-10-05T07:32:47.257Z,230.63
2018-10-05T07:33:47.404Z,236.25
2018-10-05T07:34:47.555Z,241.88
2018-10-05T07:35:47.702Z,241.88
2018-10-05T07:36:47.867Z,247.50
2018-10-05T07:37:48.000Z,247.50
2018-10-05T07:38:48.147Z,247.50
2018-10-05T07:39:48.292Z,247.50
2018-10-05T07:40:48.442Z,253.13
2018-10-05T07:41:48.592Z,247.50
2018-10-05T07:42:48.747Z,247.50
2018-10-05T07:43:48.891Z,247.50
2018-10-05T07:44:49.041Z,247.50
2018-10-05T07:45:49.188Z,247.50
2018-10-05T07:46:49.339Z,247.50
2018-10-05T07:47:49.490Z,247.50
2018-10-05T07:48:49.634Z,241.88
2018-10-05T07:49:49.784Z,247.50
2018-10-05T07:50:49.936Z,253.13
2018-10-05T07:51:50.152Z,258.75
2018-10-05T07:52:50.231Z,258.75
2018-10-05T07:53:50.383Z,253.13
2018-10-05T07:54:50.531Z,247.50
2018-10-05T07:55:50.680Z,253.13
2018-10-05T07:56:50.824Z,253.13
2018-10-05T07:57:51.020Z,253.13
2018-10-05T07:58:51.120Z,258.75
2018-10-05T07:59:51.302Z,264.38
2018-10-05T08:00:51.451Z,270.00
2018-10-05T08:01:51.605Z,270.00
2018-10-05T08:02:51.752Z,275.63
2018-10-05T08:03:51.902Z,275.63
2018-10-05T08:04:52.053Z,270.00
2018-10-05T08:05:52.201Z,264.38
2018-10-05T08:06:52.348Z,264.38
2018-10-05T08:07:52.499Z,270.00
2018-10-05T08:08:52.647Z,270.00
2018-10-05T08:09:52.797Z,281.25
2018-10-05T08:10:52.948Z,286.88
2018-10-05T08:11:53.101Z,286.88
2018-10-05T08:12:53.247Z,286.88
2018-10-05T08:13:53.395Z,292.50
2018-10-05T08:14:53.544Z,292.50
2018-10-05T08:15:53.695Z,298.13
2018-10-05T08:16:53.844Z,298.13
2018-10-05T08:17:53.992Z,292.50
2018-10-05T08:18:54.143Z,292.50
2018-10-05T08:19:54.292Z,292.50
2018-10-05T08:20:54.452Z,298.13
2018-10-05T08:21:54.591Z,309.38
2018-10-05T08:22:54.737Z,315.00
2018-10-05T08:23:54.889Z,315.00
2018-10-05T08:24:55.036Z,320.63
2018-10-05T08:25:55.184Z,326.25
2018-10-05T08:26:55.364Z,331.88
2018-10-05T08:27:55.519Z,343.13
2018-10-05T08:28:55.633Z,343.13
2018-10-05T08:29:55.782Z,348.75
2018-10-05T08:30:55.931Z,360.00
2018-10-05T08:31:56.106Z,365.63
2018-10-05T08:32:56.232Z,365.63
2018-10-05T08:33:56.460Z,371.25
2018-10-05T08:34:56.535Z,371.25
2018-10-05T08:35:56.680Z,382.50
2018-10-05T08:36:56.828Z,388.13
2018-10-05T08:37:56.978Z,393.75
2018-10-05T08:38:57.130Z,393.75
2018-10-05T08:39:57.344Z,405.00
2018-10-05T08:40:57.426Z,421.88
2018-10-05T08:41:57.573Z,438.75
2018-10-05T08:42:57.727Z,455.63
2018-10-05T08:43:57.873Z,489.38
2018-10-05T08:44:58.025Z,534.38
2018-10-05T08:45:58.192Z,545.63
2018-10-05T08:46:58.323Z,517.50
2018-10-05T08:47:58.473Z,500.63
2018-10-05T08:48:58.622Z,483.75
2018-10-05T08:49:58.774Z,495.00
2018-10-05T08:50:58.923Z,489.38
2018-10-05T08:51:59.114Z,489.38
2018-10-05T08:52:59.224Z,444.38
2018-10-05T08:53:59.373Z,388.13
2018-10-05T08:54:59.525Z,382.50
2018-10-05T08:55:59.674Z,405.00
2018-10-05T08:56:59.823Z,405.00
2018-10-05T08:57:59.973Z,444.38
2018-10-05T08:59:00.124Z,427.50
2018-10-05T09:00:00.343Z,376.88
2018-10-05T09:01:00.425Z,393.75
2018-10-05T09:02:00.574Z,410.63
2018-10-05T09:03:00.723Z,399.38
2018-10-05T09:04:00.875Z,382.50
2018-10-05T09:05:01.026Z,371.25
2018-10-05T09:06:01.177Z,365.63
2018-10-05T09:07:01.322Z,360.00
2018-10-05T09:08:01.468Z,348.75
2018-10-05T09:09:01.619Z,337.50
2018-10-05T09:10:01.770Z,331.88
2018-10-05T09:11:01.923Z,326.25
2018-10-05T09:12:02.073Z,320.63
2018-10-05T09:13:02.225Z,320.63
2018-10-05T09:14:02.373Z,320.63
2018-10-05T09:15:02.525Z,320.63
2018-10-05T09:16:02.674Z,320.63
2018-10-05T09:17:02.824Z,320.63
2018-10-05T09:18:03.031Z,320.63
2018-10-05T09:19:03.125Z,320.63
2018-10-05T09:20:03.277Z,326.25
2018-10-05T09:21:03.442Z,326.25
2018-10-05T09:22:03.572Z,326.25
2018-10-05T09:23:03.721Z,326.25
2018-10-05T09:24:03.893Z,326.25
2018-10-05T09:25:04.021Z,326.25
2018-10-05T09:26:04.173Z,326.25
2018-10-05T09:27:04.322Z,326.25
2018-10-05T09:28:04.474Z,326.25
2018-10-05T09:29:04.624Z,326.25
2018-10-05T09:30:04.774Z,326.25
2018-10-05T09:31:04.924Z,326.25
2018-10-05T09:32:05.073Z,326.25
2018-10-05T09:33:05.223Z,326.25
2018-10-05T09:34:05.374Z,326.25
2018-10-05T09:35:05.526Z,326.25
2018-10-05T09:36:05.676Z,326.25
2018-10-05T09:37:05.825Z,326.25
2018-10-05T09:38:05.977Z,326.25
2018-10-05T09:39:06.128Z,326.25
2018-10-05T09:40:06.279Z,326.25
2018-10-05T09:41:06.430Z,326.25
2018-10-05T09:42:06.580Z,331.88
2018-10-05T09:43:06.730Z,331.88
2018-10-05T09:44:06.881Z,331.88
2018-10-05T09:45:07.037Z,331.88
2018-10-05T09:46:07.180Z,331.88
2018-10-05T09:47:07.333Z,331.88
2018-10-05T09:48:07.486Z,331.88
2018-10-05T09:49:07.636Z,331.88
2018-10-05T09:50:07.787Z,331.88
2018-10-05T09:51:07.939Z,331.88
2018-10-05T09:52:08.095Z,331.88
2018-10-05T09:53:08.242Z,331.88
2018-10-05T09:54:08.393Z,331.88
2018-10-05T09:55:08.545Z,331.88
2018-10-05T09:56:08.697Z,331.88
2018-10-05T09:57:08.846Z,331.88
2018-10-05T09:58:08.999Z,331.88
2018-10-05T09:59:09.148Z,337.50
2018-10-05T10:00:09.353Z,337.50
2018-10-05T10:01:09.449Z,337.50
2018-10-05T10:02:09.602Z,337.50
2018-10-05T10:03:09.753Z,337.50
2018-10-05T10:04:09.904Z,337.50
2018-10-05T10:05:10.057Z,337.50
2018-10-05T10:06:10.208Z,337.50
2018-10-05T10:07:10.358Z,337.50
2018-10-05T10:08:10.630Z,337.50
2018-10-05T10:09:10.664Z,337.50
2018-10-05T10:10:10.813Z,337.50
2018-10-05T10:11:10.964Z,337.50
2018-10-05T10:12:11.117Z,337.50
2018-10-05T10:13:11.269Z,337.50
2018-10-05T10:14:11.419Z,337.50
2018-10-05T10:15:11.577Z,337.50
2018-10-05T10:16:11.722Z,337.50
2018-10-05T10:17:11.876Z,337.50
2018-10-05T10:18:12.030Z,337.50
2018-10-05T10:19:12.181Z,337.50
2018-10-05T10:20:12.336Z,337.50
2018-10-05T10:21:12.486Z,337.50
2018-10-05T10:22:12.643Z,337.50
2018-10-05T10:23:12.793Z,337.50
2018-10-05T10:24:12.944Z,337.50
2018-10-05T10:25:13.101Z,337.50
2018-10-05T10:26:13.253Z,337.50
2018-10-05T10:27:13.410Z,337.50
2018-10-05T10:28:13.594Z,337.50
2018-10-05T10:29:13.750Z,337.50
2018-10-05T10:30:13.876Z,337.50
2018-10-05T10:31:14.005Z,337.50
2018-10-05T10:32:14.156Z,337.50
2018-10-05T10:33:14.309Z,337.50
2018-10-05T10:34:14.496Z,343.13
2018-10-05T10:35:14.613Z,343.13
2018-10-05T10:36:14.763Z,337.50
2018-10-05T10:37:14.919Z,343.13
2018-10-05T10:38:15.072Z,343.13
2018-10-05T10:39:15.224Z,343.13
2018-10-05T10:40:15.378Z,337.50
2018-10-05T10:41:15.529Z,337.50
2018-10-05T10:42:15.685Z,337.50
2018-10-05T10:43:15.839Z,337.50
2018-10-05T10:44:15.998Z,331.88
2018-10-05T10:45:16.145Z,343.13
2018-10-05T10:46:16.298Z,348.75
2018-10-05T10:47:16.453Z,348.75
2018-10-05T10:48:16.727Z,348.75
2018-10-05T10:49:16.762Z,348.75
2018-10-05T10:50:16.916Z,337.50
2018-10-05T10:51:17.066Z,348.75
2018-10-05T10:52:17.222Z,348.75
2018-10-05T10:53:17.375Z,348.75
2018-10-05T10:54:17.559Z,348.75
2018-10-05T10:55:17.711Z,348.75
2018-10-05T10:56:17.903Z,348.75
2018-10-05T10:57:18.018Z,348.75
2018-10-05T10:58:18.171Z,331.88
2018-10-05T10:59:18.324Z,337.50
2018-10-05T11:00:18.481Z,343.13
2018-10-05T11:01:18.635Z,343.13
2018-10-05T11:02:18.787Z,343.13
2018-10-05T11:03:18.939Z,343.13
2018-10-05T11:04:19.173Z,343.13
2018-10-05T11:05:19.247Z,343.13
2018-10-05T11:06:19.399Z,343.13
2018-10-05T11:07:19.554Z,343.13
2018-10-05T11:08:19.712Z,348.75
2018-10-05T11:09:19.864Z,348.75
2018-10-05T11:10:20.014Z,343.13
2018-10-05T11:11:20.167Z,337.50
2018-10-05T11:12:20.321Z,331.88
2018-10-05T11:13:20.475Z,320.63
2018-10-05T11:14:20.630Z,343.13
2018-10-05T11:15:20.786Z,343.13
2018-10-05T11:16:20.939Z,348.75
2018-10-05T11:17:21.095Z,348.75
2018-10-05T11:18:21.252Z,348.75
2018-10-05T11:19:21.404Z,343.13
2018-10-05T11:20:21.562Z,326.25
2018-10-05T11:21:21.715Z,331.88
2018-10-05T11:22:21.866Z,337.50
2018-10-05T11:23:22.084Z,343.13
2018-10-05T11:24:22.176Z,354.38
2018-10-05T11:25:22.329Z,354.38
2018-10-05T11:26:22.485Z,348.75
2018-10-05T11:27:22.638Z,348.75
2018-10-05T11:28:22.925Z,343.13
2018-10-05T11:29:22.948Z,343.13
2018-10-05T11:30:23.100Z,354.38
2018-10-05T11:31:23.254Z,354.38
2018-10-05T11:32:23.416Z,354.38
2018-10-05T11:33:23.566Z,354.38
2018-10-05T11:34:23.720Z,354.38
2018-10-05T11:35:23.874Z,360.00
2018-10-05T11:36:24.029Z,360.00
2018-10-05T11:37:24.184Z,360.00
2018-10-05T11:38:24.342Z,360.00
2018-10-05T11:39:24.492Z,360.00
2018-10-05T11:40:24.648Z,360.00
2018-10-05T11:41:24.804Z,360.00
2018-10-05T11:42:24.957Z,360.00
2018-10-05T11:43:25.110Z,360.00
2018-10-05T11:44:25.266Z,360.00
2018-10-05T11:45:25.421Z,360.00
2018-10-05T11:46:25.601Z,360.00
2018-10-05T11:47:25.727Z,354.38
2018-10-05T11:48:25.891Z,354.38
2018-10-05T11:49:26.038Z,360.00
2018-10-05T11:50:26.221Z,354.38
2018-10-05T11:51:26.347Z,354.38
2018-10-05T11:52:26.541Z,354.38
2018-10-05T11:53:26.657Z,354.38
2018-10-05T11:54:26.814Z,343.13
2018-10-05T11:55:26.968Z,343.13
2018-10-05T11:56:27.124Z,348.75
2018-10-05T11:57:27.278Z,348.75
2018-10-05T11:58:27.433Z,354.38
2018-10-05T11:59:27.587Z,360.00
2018-10-05T12:00:27.743Z,360.00
2018-10-05T12:01:27.900Z,360.00
2018-10-05T12:02:28.113Z,360.00
2018-10-05T12:03:28.211Z,360.00
2018-10-05T12:04:28.370Z,360.00
2018-10-05T12:05:28.523Z,365.63
2018-10-05T12:06:28.682Z,360.00
2018-10-05T12:07:28.836Z,354.38
2018-10-05T12:08:28.988Z,354.38
2018-10-05T12:09:29.146Z,354.38
2018-10-05T12:10:29.301Z,354.38
2018-10-05T12:11:29.457Z,343.13
2018-10-05T12:12:29.612Z,360.00
2018-10-05T12:13:29.767Z,354.38
2018-10-05T12:14:29.924Z,354.38
2018-10-05T12:15:30.082Z,354.38
2018-10-05T12:16:30.237Z,360.00
2018-10-05T12:17:30.390Z,360.00
2018-10-05T12:18:30.546Z,365.63
2018-10-05T12:19:30.700Z,360.00
2018-10-05T12:20:30.857Z,365.63
2018-10-05T12:21:31.013Z,365.63
2018-10-05T12:22:31.189Z,365.63
2018-10-05T12:23:31.325Z,365.63
2018-10-05T12:24:31.478Z,365.63
2018-10-05T12:25:31.636Z,365.63
2018-10-05T12:26:31.810Z,365.63
2018-10-05T12:27:31.947Z,365.63
2018-10-05T12:28:32.105Z,354.38
2018-10-05T12:29:32.261Z,360.00
2018-10-05T12:30:32.419Z,365.63
2018-10-05T12:31:32.576Z,365.63
2018-10-05T12:32:32.731Z,360.00
2018-10-05T12:33:32.887Z,354.38
2018-10-05T12:34:33.044Z,360.00
2018-10-05T12:35:33.202Z,371.25
2018-10-05T12:36:33.387Z,371.25
2018-10-05T12:37:33.514Z,371.25
2018-10-05T12:38:33.671Z,371.25
2018-10-05T12:39:33.824Z,371.25
2018-10-05T12:40:33.981Z,371.25
2018-10-05T12:41:34.144Z,365.63
2018-10-05T12:42:34.299Z,360.00
2018-10-05T12:43:34.455Z,354.38
2018-10-05T12:44:34.611Z,354.38
2018-10-05T12:45:34.768Z,360.00
2018-10-05T12:46:34.925Z,360.00
2018-10-05T12:47:35.083Z,365.63
2018-10-05T12:48:35.244Z,365.63
2018-10-05T12:49:35.398Z,365.63
2018-10-05T12:50:35.561Z,343.13
2018-10-05T12:51:35.712Z,348.75
2018-10-05T12:52:35.873Z,365.63
2018-10-05T12:53:36.028Z,360.00